Terminal Aerodrome Forecast
Issued by NWS Kansas City/Pleasant Hill, MO

Home | Current Version | Previous Version | Text Only | Print | Product List | Glossary On
Versions: 1 2 3 4 5 6 7 8 9 10 11 12 13 14 15 16 17 18 19 20 21 22 23
000
FTUS43 KEAX 270204 AAA
TAFMCI
TAF AMD
KMCI 270204Z 2702/2724 30011KT 6SM -TSRA BKN007CB
     FM270300 17008KT P6SM VCTS FEW007 BKN035CB
      TEMPO 2703/2707 3SM -TSRA BKN035CB
     FM270800 17005KT P6SM VCSH BKN035
     FM271200 18005KT P6SM SCT025
     FM271900 22006KT P6SM VCTS BKN030CB=

USA.gov is the U.S. government's official web portal to all federal, state and local government web resources and services.